北京 の空港の天気 - METARとTAF

北京首都国際空港 ( ZBAA / PEK ) - 中華人民共和国 北京市
飛行場実況気象(Metar)
観測時間03/30 18:00 CST (03/30 10:00 UTC)
風向・風速不定 1m/s
視程10km以上
天気現象
なし
気温14℃
湿度36%
気圧1024hPa
METARZBAA 301000Z VRB01MPS CAVOK 14/M01 Q1024 NOSIG
過去の天気等 Google飛行場航空写真 Wunderground天気予報

過去48時間のMETAR

飛行場予報(TAF)
発表時間: 3/30 11:20 CST (3/30 03:20 UTC)
予報対象時間: 30日14時 CST ~ 31日14時 CST
風向・風速東 4m/s
視程5,000m
天気現象煙霧
なし
TAF ZBAA 300320Z 3006/3106 10004MPS 5000 HZ NSC TX15/3007Z TN04/3021Z